createdAt,value
2022-10-05T00:00:48.662Z,9.74
2022-10-05T00:03:15.501Z,9.67
2022-10-05T00:05:45.640Z,9.54
2022-10-05T00:08:21.812Z,9.45
2022-10-05T00:10:49.832Z,9.42
2022-10-05T00:13:28.324Z,9.34
2022-10-05T00:16:11.389Z,9.31
2022-10-05T00:18:39.545Z,9.28
2022-10-05T00:21:20.038Z,9.17
2022-10-05T00:23:48.488Z,9.08
2022-10-05T00:26:25.878Z,9.05
2022-10-05T00:28:54.132Z,8.99
2022-10-05T00:31:26.654Z,9.00
2022-10-05T00:33:55.009Z,8.91
2022-10-05T00:36:23.338Z,8.84
2022-10-05T00:38:51.026Z,8.87
2022-10-05T00:41:59.851Z,8.87
2022-10-05T00:44:36.837Z,8.91
2022-10-05T00:47:44.666Z,8.89
2022-10-05T00:50:23.716Z,8.88
2022-10-05T00:53:05.309Z,8.90
2022-10-05T00:56:03.120Z,8.98
2022-10-05T00:59:00.482Z,9.05
2022-10-05T01:01:34.520Z,9.15
2022-10-05T01:04:56.531Z,9.16
2022-10-05T01:07:56.544Z,9.21
2022-10-05T01:10:38.892Z,9.25
2022-10-05T01:13:41.551Z,9.27
2022-10-05T01:16:23.929Z,9.32
2022-10-05T01:19:39.333Z,9.33
2022-10-05T01:22:37.088Z,9.29
2022-10-05T01:25:49.134Z,9.32
2022-10-05T01:28:30.917Z,9.16
2022-10-05T01:31:27.238Z,9.16
2022-10-05T01:34:13.638Z,9.16
2022-10-05T01:37:04.681Z,9.03
2022-10-05T01:39:54.782Z,8.99
2022-10-05T01:42:41.216Z,9.02
2022-10-05T01:45:27.460Z,9.09
2022-10-05T01:48:22.594Z,9.07
2022-10-05T01:51:20.292Z,9.08
2022-10-05T01:54:09.088Z,9.08
2022-10-05T01:57:06.853Z,9.13
2022-10-05T01:59:39.626Z,9.18
2022-10-05T02:02:25.933Z,9.16
2022-10-05T02:05:08.812Z,9.20
2022-10-05T02:07:38.262Z,9.16
2022-10-05T02:10:33.269Z,9.14
2022-10-05T02:13:13.656Z,9.09
2022-10-05T02:15:55.233Z,8.76
2022-10-05T02:18:30.101Z,8.70
2022-10-05T02:20:59.441Z,8.67
2022-10-05T02:23:32.821Z,8.70
2022-10-05T02:26:01.483Z,8.79
2022-10-05T02:28:45.796Z,8.85
2022-10-05T02:31:31.380Z,8.81
2022-10-05T02:34:36.724Z,8.61
2022-10-05T02:37:44.136Z,8.56
2022-10-05T02:41:04.948Z,8.53
2022-10-05T02:44:02.789Z,8.56
2022-10-05T02:47:23.808Z,8.57
2022-10-05T02:50:15.333Z,8.51
2022-10-05T02:53:03.616Z,8.47
2022-10-05T02:55:45.833Z,8.51
2022-10-05T02:58:19.400Z,8.61
2022-10-05T03:00:54.572Z,8.68
2022-10-05T03:03:34.054Z,8.74
2022-10-05T03:06:05.346Z,8.83
2022-10-05T03:08:38.203Z,8.88
2022-10-05T03:11:21.488Z,8.87
2022-10-05T03:14:10.202Z,8.83
2022-10-05T03:17:07.000Z,8.77
2022-10-05T03:19:43.761Z,8.80
2022-10-05T03:22:50.200Z,8.87
2022-10-05T03:25:52.039Z,8.78
2022-10-05T03:28:55.253Z,8.74
2022-10-05T03:32:01.060Z,8.61
2022-10-05T03:35:02.377Z,8.66
2022-10-05T03:38:22.532Z,8.64
2022-10-05T03:41:33.381Z,8.50
2022-10-05T03:44:24.260Z,8.41
2022-10-05T03:47:15.024Z,8.44
2022-10-05T03:50:17.505Z,8.38
2022-10-05T03:53:04.051Z,8.22
2022-10-05T03:55:45.674Z,8.23
2022-10-05T03:58:26.366Z,8.21
2022-10-05T04:01:06.272Z,8.16
2022-10-05T04:03:36.570Z,8.10
2022-10-05T04:06:36.987Z,8.14
2022-10-05T04:09:26.522Z,8.13
2022-10-05T04:12:28.706Z,8.09
2022-10-05T04:15:05.038Z,8.01
2022-10-05T04:17:42.792Z,7.85
2022-10-05T04:20:36.517Z,7.82
2022-10-05T04:23:38.443Z,7.78
2022-10-05T04:26:51.244Z,7.75
2022-10-05T04:29:45.137Z,7.76
2022-10-05T04:32:31.316Z,7.75
2022-10-05T04:35:53.661Z,7.74
2022-10-05T04:38:59.269Z,7.72
2022-10-05T04:42:25.723Z,7.73
2022-10-05T04:45:11.236Z,7.75
2022-10-05T04:47:46.852Z,7.69
2022-10-05T04:50:48.092Z,7.69
2022-10-05T04:53:56.267Z,7.72
2022-10-05T04:56:40.288Z,7.79
2022-10-05T04:59:13.089Z,7.86
2022-10-05T05:02:19.790Z,7.92
2022-10-05T05:05:19.865Z,7.97
2022-10-05T05:08:25.321Z,7.98
2022-10-05T05:11:16.186Z,8.02
2022-10-05T05:14:02.793Z,8.10
2022-10-05T05:16:42.066Z,8.00
2022-10-05T05:19:40.278Z,7.99
2022-10-05T05:22:27.766Z,8.03
2022-10-05T05:25:13.187Z,8.03
2022-10-05T05:27:47.457Z,7.99
2022-10-05T05:30:24.082Z,7.88
2022-10-05T05:33:19.607Z,7.89
2022-10-05T05:36:01.666Z,7.90
2022-10-05T05:38:39.854Z,7.82
2022-10-05T05:41:43.649Z,7.89
2022-10-05T05:44:26.845Z,7.87
2022-10-05T05:47:14.210Z,7.87
2022-10-05T05:50:21.113Z,7.98
2022-10-05T05:52:55.205Z,8.16
2022-10-05T05:55:47.512Z,8.38
2022-10-05T05:58:17.222Z,8.56
2022-10-05T06:01:32.588Z,8.55
2022-10-05T06:04:41.762Z,8.68
2022-10-05T06:07:18.057Z,8.89
2022-10-05T06:10:06.100Z,9.08
2022-10-05T06:12:42.003Z,9.23
2022-10-05T06:15:46.214Z,9.34
2022-10-05T06:18:17.463Z,9.44
2022-10-05T06:21:02.878Z,9.69
2022-10-05T06:24:02.427Z,9.87
2022-10-05T06:27:06.408Z,10.15
2022-10-05T06:30:00.935Z,10.45
2022-10-05T06:32:52.457Z,10.77
2022-10-05T06:35:46.996Z,10.92
2022-10-05T06:39:03.671Z,11.14
2022-10-05T06:42:07.338Z,11.42
2022-10-05T06:44:49.296Z,11.68
2022-10-05T06:47:36.144Z,11.81
2022-10-05T06:50:24.602Z,12.27
2022-10-05T06:53:17.021Z,12.74
2022-10-05T06:56:18.844Z,13.09
2022-10-05T06:59:06.488Z,13.11
2022-10-05T07:02:26.881Z,13.48
2022-10-05T07:05:11.608Z,14.00
2022-10-05T07:08:01.142Z,14.46
2022-10-05T07:11:28.880Z,12.89
2022-10-05T07:14:11.799Z,13.81
2022-10-05T07:17:28.342Z,13.81
2022-10-05T07:20:03.761Z,14.44
2022-10-05T07:23:09.122Z,14.69
2022-10-05T07:26:03.658Z,15.43
2022-10-05T07:28:41.256Z,15.92
2022-10-05T07:31:25.909Z,16.57
2022-10-05T07:34:44.334Z,16.96
2022-10-05T07:37:54.640Z,17.34
2022-10-05T07:40:29.823Z,17.39
2022-10-05T07:43:40.306Z,17.90
2022-10-05T07:47:00.758Z,18.30
2022-10-05T07:50:04.667Z,18.13
2022-10-05T07:52:49.320Z,18.16
2022-10-05T07:55:25.701Z,18.35
2022-10-05T07:58:23.622Z,18.93
2022-10-05T08:00:56.354Z,18.48
2022-10-05T08:03:56.552Z,18.83
2022-10-05T08:06:26.978Z,19.11
2022-10-05T08:09:13.454Z,19.88
2022-10-05T08:12:28.023Z,20.71
2022-10-05T08:14:57.658Z,20.73
2022-10-05T08:17:55.831Z,20.98
2022-10-05T08:20:48.589Z,21.18
2022-10-05T08:23:44.564Z,21.17
2022-10-05T08:26:38.654Z,21.48
2022-10-05T08:29:30.981Z,21.58
2022-10-05T08:32:03.677Z,21.51
2022-10-05T08:35:14.948Z,22.29
2022-10-05T08:37:44.232Z,22.65
2022-10-05T08:40:39.894Z,22.79
2022-10-05T08:44:25.438Z,22.43
2022-10-05T08:47:16.881Z,21.28
2022-10-05T08:50:10.410Z,21.56
2022-10-05T08:53:40.213Z,21.42
2022-10-05T08:56:29.055Z,21.18
2022-10-05T08:59:45.498Z,21.34
2022-10-05T09:02:42.884Z,21.12
2022-10-05T09:05:43.444Z,21.15
2022-10-05T09:08:44.217Z,20.95
2022-10-05T09:11:13.349Z,20.86
2022-10-05T09:14:13.488Z,21.05
2022-10-05T09:17:15.573Z,20.94
2022-10-05T09:20:27.021Z,21.00
2022-10-05T09:23:18.020Z,22.08
2022-10-05T09:26:24.089Z,22.92
2022-10-05T09:29:34.635Z,22.39
2022-10-05T09:32:54.465Z,22.92
2022-10-05T09:35:53.404Z,23.02
2022-10-05T09:38:40.615Z,23.37
2022-10-05T09:41:34.268Z,23.43
2022-10-05T09:44:33.391Z,24.03
2022-10-05T09:47:17.228Z,24.31
2022-10-05T09:50:30.769Z,24.72
2022-10-05T09:53:47.098Z,22.93
2022-10-05T09:56:22.547Z,23.43
2022-10-05T09:59:25.221Z,23.89
2022-10-05T10:02:17.426Z,23.73
2022-10-05T10:05:25.921Z,24.18
2022-10-05T10:08:43.584Z,24.55
2022-10-05T10:11:59.625Z,25.38
2022-10-05T10:15:00.591Z,25.35
2022-10-05T10:18:10.332Z,25.41
2022-10-05T10:21:01.663Z,24.84
2022-10-05T10:24:24.531Z,25.11
2022-10-05T10:27:18.760Z,26.02
2022-10-05T10:30:27.589Z,25.01
2022-10-05T10:33:36.341Z,25.24
2022-10-05T10:36:37.686Z,26.26
2022-10-05T10:39:45.144Z,25.78
2022-10-05T10:42:49.257Z,26.78
2022-10-05T10:45:28.697Z,26.38
2022-10-05T10:48:23.731Z,26.61
2022-10-05T10:51:04.493Z,26.04
2022-10-05T10:54:04.801Z,27.04
2022-10-05T10:57:15.836Z,27.93
2022-10-05T11:00:21.298Z,28.09
2022-10-05T11:03:28.340Z,28.15
2022-10-05T11:06:26.146Z,26.84
2022-10-05T11:09:25.515Z,27.69
2022-10-05T11:12:39.771Z,28.13
2022-10-05T11:15:43.855Z,28.45
2022-10-05T11:18:28.912Z,28.46
2022-10-05T11:21:26.090Z,28.21
2022-10-05T11:24:38.673Z,28.56
2022-10-05T11:27:43.679Z,28.60
2022-10-05T11:30:50.323Z,29.42
2022-10-05T11:34:13.441Z,28.71
2022-10-05T11:37:04.304Z,28.92
2022-10-05T11:40:14.649Z,28.96
2022-10-05T11:43:17.733Z,28.60
2022-10-05T11:46:20.245Z,27.88
2022-10-05T11:49:22.131Z,28.42
2022-10-05T11:51:57.711Z,28.26
2022-10-05T11:55:10.554Z,29.71
2022-10-05T11:57:49.589Z,30.48
2022-10-05T12:00:22.844Z,30.07
2022-10-05T12:03:26.051Z,30.06
2022-10-05T12:06:17.726Z,30.74
2022-10-05T12:09:14.571Z,31.34
2022-10-05T12:12:05.909Z,31.62
2022-10-05T12:15:00.812Z,30.64
2022-10-05T12:17:44.418Z,31.94
2022-10-05T12:20:24.796Z,31.74
2022-10-05T12:23:28.307Z,32.36
2022-10-05T12:26:04.588Z,32.02
2022-10-05T12:28:42.323Z,32.68
2022-10-05T12:31:42.829Z,32.37
2022-10-05T12:34:49.998Z,34.06
2022-10-05T12:37:42.039Z,34.39
2022-10-05T12:40:24.018Z,34.62
2022-10-05T12:43:18.413Z,35.40
2022-10-05T12:46:21.613Z,35.30
2022-10-05T12:49:21.669Z,34.50
2022-10-05T12:51:58.761Z,33.61
2022-10-05T12:54:33.926Z,34.68
2022-10-05T12:57:40.998Z,33.09
2022-10-05T13:00:22.706Z,34.06
2022-10-05T13:03:28.574Z,34.54
2022-10-05T13:06:26.425Z,34.57
2022-10-05T13:09:11.436Z,33.63
2022-10-05T13:11:46.224Z,33.49
2022-10-05T13:14:54.797Z,32.68
2022-10-05T13:18:08.032Z,33.05
2022-10-05T13:20:45.602Z,33.19
2022-10-05T13:23:26.301Z,32.31
2022-10-05T13:26:03.426Z,31.66
2022-10-05T13:28:59.550Z,31.73
2022-10-05T13:31:42.749Z,32.33
2022-10-05T13:34:40.254Z,32.33
2022-10-05T13:37:35.792Z,32.17
2022-10-05T13:40:21.741Z,32.19
2022-10-05T13:43:06.636Z,31.04
2022-10-05T13:45:56.994Z,31.32
2022-10-05T13:48:58.179Z,31.60
2022-10-05T13:51:53.548Z,31.35
2022-10-05T13:54:32.678Z,31.13
2022-10-05T13:57:24.800Z,31.91
2022-10-05T13:59:57.470Z,31.61
2022-10-05T14:02:38.418Z,31.95
2022-10-05T14:05:20.957Z,31.98
2022-10-05T14:08:04.121Z,32.31
2022-10-05T14:10:33.886Z,32.34
2022-10-05T14:13:20.056Z,31.54
2022-10-05T14:16:23.292Z,31.43
2022-10-05T14:19:27.953Z,31.16
2022-10-05T14:22:02.117Z,31.64
2022-10-05T14:24:44.599Z,31.22
2022-10-05T14:27:35.120Z,31.12
2022-10-05T14:30:11.955Z,31.65
2022-10-05T14:32:59.101Z,31.05
2022-10-05T14:35:31.101Z,31.10
2022-10-05T14:38:01.540Z,31.09
2022-10-05T14:40:34.107Z,30.95
2022-10-05T14:43:16.615Z,30.37
2022-10-05T14:46:23.366Z,29.80
2022-10-05T14:49:12.954Z,29.60
2022-10-05T14:51:42.151Z,29.47
2022-10-05T14:54:59.149Z,29.48
2022-10-05T14:58:03.305Z,29.56
2022-10-05T15:00:40.110Z,29.35
2022-10-05T15:03:35.885Z,29.44
2022-10-05T15:06:11.743Z,29.57
2022-10-05T15:09:17.026Z,29.42
2022-10-05T15:11:55.919Z,29.45
2022-10-05T15:14:32.622Z,29.35
2022-10-05T15:17:29.512Z,28.88
2022-10-05T15:20:16.140Z,28.55
2022-10-05T15:22:50.341Z,28.22
2022-10-05T15:25:27.795Z,27.84
2022-10-05T15:28:19.190Z,27.65
2022-10-05T15:31:16.240Z,27.34
2022-10-05T15:33:53.705Z,27.17
2022-10-05T15:36:35.562Z,26.71
2022-10-05T15:39:12.521Z,26.59
2022-10-05T15:42:00.357Z,26.51
2022-10-05T15:44:57.487Z,26.37
2022-10-05T15:48:04.336Z,26.00
2022-10-05T15:51:15.374Z,25.70
2022-10-05T15:54:17.709Z,25.68
2022-10-05T15:57:34.641Z,25.44
2022-10-05T16:00:11.020Z,25.30
2022-10-05T16:02:42.116Z,24.92
2022-10-05T16:05:55.812Z,24.72
2022-10-05T16:08:55.762Z,24.35
2022-10-05T16:12:02.431Z,23.95
2022-10-05T16:14:35.279Z,23.43
2022-10-05T16:17:40.907Z,23.03
2022-10-05T16:20:28.899Z,22.91
2022-10-05T16:23:23.192Z,22.81
2022-10-05T16:26:36.415Z,22.50
2022-10-05T16:29:16.299Z,22.40
2022-10-05T16:32:07.609Z,22.24
2022-10-05T16:35:24.878Z,21.81
2022-10-05T16:38:13.190Z,21.64
2022-10-05T16:41:09.520Z,21.31
2022-10-05T16:44:03.458Z,21.16
2022-10-05T16:46:40.009Z,21.01
2022-10-05T16:49:21.954Z,20.77
2022-10-05T16:52:00.228Z,20.53
2022-10-05T16:55:03.393Z,20.47
2022-10-05T16:57:37.701Z,20.31
2022-10-05T17:00:20.849Z,20.00
2022-10-05T17:03:21.945Z,19.83
2022-10-05T17:06:15.544Z,19.04
2022-10-05T17:09:32.003Z,19.24
2022-10-05T17:12:32.731Z,19.39
2022-10-05T17:15:14.782Z,19.15
2022-10-05T17:18:16.578Z,19.03
2022-10-05T17:21:15.646Z,18.89
2022-10-05T17:24:07.555Z,18.40
2022-10-05T17:26:56.465Z,18.54
2022-10-05T17:29:26.471Z,18.49
2022-10-05T17:32:33.573Z,18.14
2022-10-05T17:35:02.894Z,18.27
2022-10-05T17:37:39.152Z,18.35
2022-10-05T17:40:32.534Z,18.23
2022-10-05T17:43:15.382Z,18.02
2022-10-05T17:45:42.037Z,18.02
2022-10-05T17:48:12.847Z,18.11
2022-10-05T17:51:07.202Z,18.02
2022-10-05T17:54:01.728Z,18.01
2022-10-05T17:56:30.634Z,17.85
2022-10-05T17:59:02.517Z,17.73
2022-10-05T18:01:39.156Z,17.78
2022-10-05T18:04:12.093Z,17.81
2022-10-05T18:06:48.042Z,17.79
2022-10-05T18:09:20.278Z,17.78
2022-10-05T18:12:11.250Z,17.56
2022-10-05T18:15:23.127Z,17.31
2022-10-05T18:17:57.124Z,17.10
2022-10-05T18:20:32.054Z,16.99
2022-10-05T18:23:09.412Z,16.89
2022-10-05T18:26:16.198Z,16.61
2022-10-05T18:28:48.808Z,16.65
2022-10-05T18:31:36.850Z,16.58
2022-10-05T18:34:20.144Z,16.49
2022-10-05T18:37:00.801Z,16.49
2022-10-05T18:40:03.179Z,16.48
2022-10-05T18:42:40.086Z,16.37
2022-10-05T18:45:39.396Z,16.33
2022-10-05T18:48:46.843Z,16.26
2022-10-05T18:51:51.649Z,16.29
2022-10-05T18:55:05.520Z,16.22
2022-10-05T18:58:05.538Z,16.09
2022-10-05T19:01:09.503Z,15.85
2022-10-05T19:04:04.789Z,15.73
2022-10-05T19:06:56.730Z,15.54
2022-10-05T19:10:08.824Z,15.54
2022-10-05T19:13:01.941Z,15.62
2022-10-05T19:15:50.373Z,15.50
2022-10-05T19:18:37.276Z,15.55
2022-10-05T19:21:35.533Z,15.40
2022-10-05T19:24:22.626Z,15.34
2022-10-05T19:27:11.805Z,15.21
2022-10-05T19:30:17.938Z,15.10
2022-10-05T19:33:22.029Z,15.00
2022-10-05T19:36:04.824Z,14.90
2022-10-05T19:38:37.365Z,14.93
2022-10-05T19:41:22.430Z,14.94
2022-10-05T19:44:14.017Z,14.96
2022-10-05T19:46:52.615Z,15.10
2022-10-05T19:49:54.255Z,15.11
2022-10-05T19:52:47.545Z,14.99
2022-10-05T19:55:24.112Z,14.92
2022-10-05T19:57:57.924Z,14.89
2022-10-05T20:00:26.165Z,14.96
2022-10-05T20:03:09.962Z,14.79
2022-10-05T20:05:36.850Z,14.84
2022-10-05T20:08:06.105Z,14.82
2022-10-05T20:10:33.130Z,14.76
2022-10-05T20:13:03.870Z,14.85
2022-10-05T20:15:54.846Z,14.83
2022-10-05T20:19:06.949Z,14.63
2022-10-05T20:22:00.508Z,14.64
2022-10-05T20:24:49.608Z,14.54
2022-10-05T20:27:52.081Z,14.13
2022-10-05T20:30:22.584Z,14.02
2022-10-05T20:32:51.120Z,13.80
2022-10-05T20:35:22.979Z,13.79
2022-10-05T20:37:52.309Z,13.81
2022-10-05T20:40:20.304Z,13.87
2022-10-05T20:42:47.834Z,13.97
2022-10-05T20:45:14.671Z,13.98
2022-10-05T20:47:42.331Z,13.72
2022-10-05T20:50:10.611Z,13.81
2022-10-05T20:52:38.279Z,13.80
2022-10-05T20:55:09.912Z,13.77
2022-10-05T20:57:42.187Z,13.79
2022-10-05T21:00:11.502Z,13.80
2022-10-05T21:02:39.394Z,13.76
2022-10-05T21:05:07.660Z,13.75
2022-10-05T21:07:34.826Z,13.69
2022-10-05T21:10:03.622Z,13.65
2022-10-05T21:12:30.509Z,13.62
2022-10-05T21:14:59.181Z,13.68
2022-10-05T21:17:25.979Z,13.65
2022-10-05T21:19:52.729Z,13.64
2022-10-05T21:22:19.555Z,13.62
2022-10-05T21:24:46.669Z,13.62
2022-10-05T21:27:13.456Z,13.57
2022-10-05T21:29:44.111Z,13.54
2022-10-05T21:32:11.777Z,13.52
2022-10-05T21:34:39.973Z,13.52
2022-10-05T21:37:07.861Z,13.52
2022-10-05T21:39:35.268Z,13.53
2022-10-05T21:42:02.201Z,13.59
2022-10-05T21:44:29.020Z,13.64
2022-10-05T21:46:56.532Z,13.72
2022-10-05T21:49:24.449Z,13.80
2022-10-05T21:51:51.462Z,13.91
2022-10-05T21:54:21.477Z,13.86
2022-10-05T21:56:54.781Z,13.83
2022-10-05T21:59:28.443Z,13.79
2022-10-05T22:01:55.258Z,13.75
2022-10-05T22:04:22.236Z,13.58
2022-10-05T22:06:49.161Z,13.58
2022-10-05T22:09:15.973Z,13.54
2022-10-05T22:11:45.685Z,13.50
2022-10-05T22:14:15.456Z,13.56
2022-10-05T22:16:43.993Z,13.49
2022-10-05T22:19:19.932Z,13.45
2022-10-05T22:21:47.071Z,13.46
2022-10-05T22:24:13.861Z,13.44
2022-10-05T22:26:43.915Z,13.40
2022-10-05T22:29:10.848Z,13.39
2022-10-05T22:31:38.341Z,13.36
2022-10-05T22:34:05.673Z,13.29
2022-10-05T22:36:35.302Z,13.24
2022-10-05T22:39:02.405Z,13.16
2022-10-05T22:41:29.263Z,13.03
2022-10-05T22:43:56.028Z,13.11
2022-10-05T22:46:22.909Z,13.11
2022-10-05T22:48:49.753Z,13.11
2022-10-05T22:51:16.565Z,13.08
2022-10-05T22:53:43.397Z,13.02
2022-10-05T22:56:13.980Z,12.99
2022-10-05T22:58:42.558Z,12.96
2022-10-05T23:01:13.136Z,12.97
2022-10-05T23:03:40.886Z,12.94
2022-10-05T23:06:19.922Z,12.91
2022-10-05T23:08:47.009Z,12.91
2022-10-05T23:11:26.854Z,12.84
2022-10-05T23:13:57.975Z,12.80
2022-10-05T23:16:28.012Z,12.78
2022-10-05T23:18:55.071Z,12.70
2022-10-05T23:21:23.944Z,12.67
2022-10-05T23:23:53.818Z,12.66
2022-10-05T23:26:23.908Z,12.65
2022-10-05T23:28:50.923Z,12.55
2022-10-05T23:31:22.067Z,12.53
2022-10-05T23:33:48.950Z,12.50
2022-10-05T23:36:19.884Z,12.57
2022-10-05T23:38:47.127Z,12.49
2022-10-05T23:41:14.193Z,12.46
2022-10-05T23:43:41.001Z,12.57
2022-10-05T23:46:08.919Z,12.59
2022-10-05T23:48:38.888Z,12.62
2022-10-05T23:51:08.566Z,12.61
2022-10-05T23:53:35.657Z,12.60
2022-10-05T23:56:03.344Z,12.63
2022-10-05T23:58:30.910Z,12.55
